Moraga, California
Current Conditions -  °F | °C
As of 10:53 AM on Friday 24 Oct 2014 (Local Time) from KOAK Reporting Station
Clear Clear  
Wind Chill: 65°   Ceiling: Unl
Heat Index: 65°   Visibility: 10mi
Dew Point: 54°   Wind: 7mph
Humidity: 68%   Direction: 230°SW
Pressure: 29.96"   Gusts: NA
Location:  37.83°N, 122.13°W
Report Text: KOAK 241753Z 23006KT 10SM CLR 18/12 A2996 RMK AO2 SLP146 T01830122 10183 20133 50001
Loading
Personal Weather Stations






























Interactive Weather Map
Tropical Storm Tracking
New forecast layout! Learn more

10-Day Weather Forecast

Advertisements
Track Severe Weather on mobile